Airfield :
LOGIN :

Register | Disclaimer

   EN    FR    IT 

 










Legend :    VFR   Marginal VFR   IFR   Intensive IFR   Very Intensive IFR
Visi :
Ceiling :
>= 8 km
>= 3000ft
5 to 8 km
1000 to 3000 ft
1500m to 5 km
500 to 1000 ft
800 to 1500m
200 to 500 ft
< 800m
< 200 ft
Symbols :   Thunderstorms  Fog  Heavy snow  Heavy precipitations  Wind > 20 kt
SIGMETs :     Misc.  Thunderstorms  Icing  Turbulence  Mountain Waves  Volcanic Ashes






- Airport Elevation : 325 ft
- IATA code : POX


LFPT - Pontoise

CURRENT METAR :
  • 230100Z AUTO 23010KT 200V260 9999 FEW011 SCT025 OVC034 19/17 Q1019

EXPIRED METARs :
  • 230030Z AUTO 24006KT 9999 OVC044 19/16 Q1019
  • 230000Z AUTO 24006KT 220V280 9999 FEW036 BKN049 OVC060 19/16 Q1019
  • 222330Z AUTO 23009KT CAVOK 19/16 Q1019
  • 222300Z AUTO 23008KT CAVOK 19/16 Q1019
  • 222230Z AUTO 23006KT 200V260 CAVOK 19/16 Q1019
  • 222200Z AUTO 23006KT 200V260 CAVOK 18/15 Q1019
  • 222130Z AUTO VRB02KT CAVOK 18/15 Q1019
  • 222100Z AUTO 23005KT 190V260 CAVOK 19/15 Q1019
  • 222030Z AUTO 22007KT CAVOK 19/15 Q1019

TAF N/A
ATIS : +33 1 30 30 52 08



MET'MAP, your aeronautical weather chart ! - Copyright ORBIFLY December 2007 - Disclaimer

ORBIFLY MET'MAP TEAM :

Programming & Development : Alexandra Zaïnal
Original concept : Baudouin d'Aumeries
Technical & hardware support : Manuel Goepfert
Assistance : Marc-Olivier Méhu




SOURCES & CREDITS :

   NOAA